Allen, Alabama
Current Conditions -  °F | °C
As of 6:53 PM on Tuesday 25 Nov 2014 (Local Time) from KGZH Reporting Station
Broken Clouds Broken Clouds  
Wind Chill: 54°   Ceiling: 11000
Heat Index: 54°   Visibility: 10mi
Dew Point: 35°   Wind: 5mph
Humidity: 49%   Direction: 330°NNW
Pressure: 30.12"   Gusts: NA
Location:  31.6°N, 87.71°W
Report Text: KGZH 260053Z AUTO 33004KT 10SM BKN110 12/02 A3012 RMK AO2 SLP199 T01220017
Loading
Personal Weather Stations






























Interactive Weather Map New forecast layout! Learn more

10-Day Weather Forecast

Advertisements
Track Severe Weather on mobile